sensor_id;sensor_type;location;lat;lon;timestamp;temperature;humidity
35043;DHT22;21230;51.170;17.024;2022-08-01T00:01:56;16.40;99.90
35043;DHT22;21230;51.170;17.024;2022-08-01T00:04:21;16.30;99.90
35043;DHT22;21230;51.170;17.024;2022-08-01T00:06:47;16.30;99.90
35043;DHT22;21230;51.170;17.024;2022-08-01T00:09:13;16.20;99.90
35043;DHT22;21230;51.170;17.024;2022-08-01T00:11:39;16.20;99.90
35043;DHT22;21230;51.170;17.024;2022-08-01T00:14:05;16.20;99.90
35043;DHT22;21230;51.170;17.024;2022-08-01T00:16:33;16.10;99.90
35043;DHT22;21230;51.170;17.024;2022-08-01T00:18:59;16.20;99.90
35043;DHT22;21230;51.170;17.024;2022-08-01T00:21:25;16.20;99.90
35043;DHT22;21230;51.170;17.024;2022-08-01T00:23:58;16.10;99.90
35043;DHT22;21230;51.170;17.024;2022-08-01T00:26:24;16.00;99.90
35043;DHT22;21230;51.170;17.024;2022-08-01T00:28:50;15.90;99.90
35043;DHT22;21230;51.170;17.024;2022-08-01T00:31:23;15.90;99.90
35043;DHT22;21230;51.170;17.024;2022-08-01T00:33:58;15.90;99.90
35043;DHT22;21230;51.170;17.024;2022-08-01T00:36:24;15.80;99.90
35043;DHT22;21230;51.170;17.024;2022-08-01T00:38:49;15.80;99.90
35043;DHT22;21230;51.170;17.024;2022-08-01T00:41:15;15.80;99.90
35043;DHT22;21230;51.170;17.024;2022-08-01T00:43:41;15.80;99.90
35043;DHT22;21230;51.170;17.024;2022-08-01T00:46:06;15.80;99.90
35043;DHT22;21230;51.170;17.024;2022-08-01T00:48:32;15.80;99.90
35043;DHT22;21230;51.170;17.024;2022-08-01T00:50:58;15.90;99.90
35043;DHT22;21230;51.170;17.024;2022-08-01T00:53:24;15.80;99.90
35043;DHT22;21230;51.170;17.024;2022-08-01T00:55:50;15.80;99.90
35043;DHT22;21230;51.170;17.024;2022-08-01T00:58:16;15.70;99.90
35043;DHT22;21230;51.170;17.024;2022-08-01T01:00:41;15.70;99.90
35043;DHT22;21230;51.170;17.024;2022-08-01T01:03:07;15.60;99.90
35043;DHT22;21230;51.170;17.024;2022-08-01T01:05:35;15.60;99.90
35043;DHT22;21230;51.170;17.024;2022-08-01T01:08:14;15.50;99.90
35043;DHT22;21230;51.170;17.024;2022-08-01T01:10:48;15.50;99.90
35043;DHT22;21230;51.170;17.024;2022-08-01T01:18:24;15.30;99.90
35043;DHT22;21230;51.170;17.024;2022-08-01T01:23:46;15.30;99.90
35043;DHT22;21230;51.170;17.024;2022-08-01T01:31:31;15.30;99.90
35043;DHT22;21230;51.170;17.024;2022-08-01T01:33:58;15.40;99.90
35043;DHT22;21230;51.170;17.024;2022-08-01T01:36:25;15.30;99.90
35043;DHT22;21230;51.170;17.024;2022-08-01T01:38:51;15.30;99.90
35043;DHT22;21230;51.170;17.024;2022-08-01T01:41:20;15.30;99.90
35043;DHT22;21230;51.170;17.024;2022-08-01T01:43:46;15.30;99.90
35043;DHT22;21230;51.170;17.024;2022-08-01T01:46:15;15.30;99.90
35043;DHT22;21230;51.170;17.024;2022-08-01T01:48:43;15.30;99.90
35043;DHT22;21230;51.170;17.024;2022-08-01T01:51:09;15.30;99.90
35043;DHT22;21230;51.170;17.024;2022-08-01T01:53:35;15.30;99.90
35043;DHT22;21230;51.170;17.024;2022-08-01T01:56:02;15.40;99.90
35043;DHT22;21230;51.170;17.024;2022-08-01T01:58:29;15.40;99.90
35043;DHT22;21230;51.170;17.024;2022-08-01T02:00:56;15.30;99.90
35043;DHT22;21230;51.170;17.024;2022-08-01T02:03:23;15.30;99.90
35043;DHT22;21230;51.170;17.024;2022-08-01T02:05:51;15.40;99.90
35043;DHT22;21230;51.170;17.024;2022-08-01T02:08:18;15.30;99.90
35043;DHT22;21230;51.170;17.024;2022-08-01T02:10:45;15.30;99.90
35043;DHT22;21230;51.170;17.024;2022-08-01T02:13:32;15.30;99.90
35043;DHT22;21230;51.170;17.024;2022-08-01T02:15:58;15.40;99.90
35043;DHT22;21230;51.170;17.024;2022-08-01T02:18:24;15.40;99.90
35043;DHT22;21230;51.170;17.024;2022-08-01T02:20:50;15.40;99.90
35043;DHT22;21230;51.170;17.024;2022-08-01T02:23:17;15.40;99.90
35043;DHT22;21230;51.170;17.024;2022-08-01T02:25:45;15.40;99.90
35043;DHT22;21230;51.170;17.024;2022-08-01T02:28:22;15.30;99.90
35043;DHT22;21230;51.170;17.024;2022-08-01T02:30:51;15.30;99.90
35043;DHT22;21230;51.170;17.024;2022-08-01T02:33:18;15.20;99.90
35043;DHT22;21230;51.170;17.024;2022-08-01T02:35:46;15.20;99.90
35043;DHT22;21230;51.170;17.024;2022-08-01T02:38:13;15.10;99.90
35043;DHT22;21230;51.170;17.024;2022-08-01T02:40:40;15.10;99.90
35043;DHT22;21230;51.170;17.024;2022-08-01T02:43:07;15.00;99.90
35043;DHT22;21230;51.170;17.024;2022-08-01T02:45:35;15.00;99.90
35043;DHT22;21230;51.170;17.024;2022-08-01T02:48:12;15.00;99.90
35043;DHT22;21230;51.170;17.024;2022-08-01T02:50:39;15.00;99.90
35043;DHT22;21230;51.170;17.024;2022-08-01T02:53:07;14.90;99.90
35043;DHT22;21230;51.170;17.024;2022-08-01T02:55:35;14.80;99.90
35043;DHT22;21230;51.170;17.024;2022-08-01T02:58:02;14.80;99.90
35043;DHT22;21230;51.170;17.024;2022-08-01T03:00:28;14.80;99.90
35043;DHT22;21230;51.170;17.024;2022-08-01T03:02:55;14.70;99.90
35043;DHT22;21230;51.170;17.024;2022-08-01T03:05:22;14.80;99.90
35043;DHT22;21230;51.170;17.024;2022-08-01T03:07:48;14.90;99.90
35043;DHT22;21230;51.170;17.024;2022-08-01T03:10:14;15.00;99.90
35043;DHT22;21230;51.170;17.024;2022-08-01T03:12:40;15.00;99.90
35043;DHT22;21230;51.170;17.024;2022-08-01T03:15:06;15.00;99.90
35043;DHT22;21230;51.170;17.024;2022-08-01T03:17:34;15.10;99.90
35043;DHT22;21230;51.170;17.024;2022-08-01T03:20:02;15.10;99.90
35043;DHT22;21230;51.170;17.024;2022-08-01T03:22:29;15.20;99.90
35043;DHT22;21230;51.170;17.024;2022-08-01T03:24:59;15.20;99.90
35043;DHT22;21230;51.170;17.024;2022-08-01T03:27:26;15.30;99.90
35043;DHT22;21230;51.170;17.024;2022-08-01T03:29:52;15.30;99.90
35043;DHT22;21230;51.170;17.024;2022-08-01T03:32:19;15.30;99.90
35043;DHT22;21230;51.170;17.024;2022-08-01T03:34:53;15.30;99.90
35043;DHT22;21230;51.170;17.024;2022-08-01T03:37:23;15.30;99.90
35043;DHT22;21230;51.170;17.024;2022-08-01T03:40:00;15.40;99.90
35043;DHT22;21230;51.170;17.024;2022-08-01T03:42:30;15.40;99.90
35043;DHT22;21230;51.170;17.024;2022-08-01T03:44:58;15.40;99.90
35043;DHT22;21230;51.170;17.024;2022-08-01T03:47:26;15.50;99.90
35043;DHT22;21230;51.170;17.024;2022-08-01T03:49:54;15.50;99.90
35043;DHT22;21230;51.170;17.024;2022-08-01T03:52:21;15.60;99.90
35043;DHT22;21230;51.170;17.024;2022-08-01T03:54:48;15.60;99.90
35043;DHT22;21230;51.170;17.024;2022-08-01T03:57:15;15.60;99.90
35043;DHT22;21230;51.170;17.024;2022-08-01T03:59:41;15.60;99.90
35043;DHT22;21230;51.170;17.024;2022-08-01T04:02:07;15.60;99.90
35043;DHT22;21230;51.170;17.024;2022-08-01T04:04:33;15.60;99.90
35043;DHT22;21230;51.170;17.024;2022-08-01T04:06:59;15.60;99.90
35043;DHT22;21230;51.170;17.024;2022-08-01T04:09:30;15.60;99.90
35043;DHT22;21230;51.170;17.024;2022-08-01T04:11:57;15.60;99.90
35043;DHT22;21230;51.170;17.024;2022-08-01T04:14:23;15.60;99.90
35043;DHT22;21230;51.170;17.024;2022-08-01T04:16:49;15.60;99.90
35043;DHT22;21230;51.170;17.024;2022-08-01T04:19:14;15.60;99.90
35043;DHT22;21230;51.170;17.024;2022-08-01T04:21:40;15.60;99.90
35043;DHT22;21230;51.170;17.024;2022-08-01T04:24:12;15.60;99.90
35043;DHT22;21230;51.170;17.024;2022-08-01T04:26:38;15.70;99.90
35043;DHT22;21230;51.170;17.024;2022-08-01T04:29:05;15.70;99.90
35043;DHT22;21230;51.170;17.024;2022-08-01T04:31:32;15.70;99.90
35043;DHT22;21230;51.170;17.024;2022-08-01T04:33:58;15.70;99.90
35043;DHT22;21230;51.170;17.024;2022-08-01T04:36:25;15.80;99.90
35043;DHT22;21230;51.170;17.024;2022-08-01T04:38:53;15.80;99.90
35043;DHT22;21230;51.170;17.024;2022-08-01T04:41:20;15.80;99.90
35043;DHT22;21230;51.170;17.024;2022-08-01T04:43:49;15.80;99.90
35043;DHT22;21230;51.170;17.024;2022-08-01T04:48:56;15.80;99.90
35043;DHT22;21230;51.170;17.024;2022-08-01T04:51:25;15.80;99.90
35043;DHT22;21230;51.170;17.024;2022-08-01T04:53:51;15.90;99.90
35043;DHT22;21230;51.170;17.024;2022-08-01T04:56:20;15.90;99.90
35043;DHT22;21230;51.170;17.024;2022-08-01T04:58:57;15.90;99.90
35043;DHT22;21230;51.170;17.024;2022-08-01T05:01:44;15.90;99.90
35043;DHT22;21230;51.170;17.024;2022-08-01T05:12:26;15.90;99.90
35043;DHT22;21230;51.170;17.024;2022-08-01T05:14:52;16.00;99.90
35043;DHT22;21230;51.170;17.024;2022-08-01T05:17:20;16.10;99.90
35043;DHT22;21230;51.170;17.024;2022-08-01T05:19:48;16.10;99.90
35043;DHT22;21230;51.170;17.024;2022-08-01T05:22:22;16.10;99.90
35043;DHT22;21230;51.170;17.024;2022-08-01T05:24:51;16.10;99.90
35043;DHT22;21230;51.170;17.024;2022-08-01T05:27:18;16.10;99.90
35043;DHT22;21230;51.170;17.024;2022-08-01T05:29:46;16.10;99.90
35043;DHT22;21230;51.170;17.024;2022-08-01T05:32:18;16.10;99.90
35043;DHT22;21230;51.170;17.024;2022-08-01T05:35:06;16.10;99.90
35043;DHT22;21230;51.170;17.024;2022-08-01T05:37:47;16.10;99.90
35043;DHT22;21230;51.170;17.024;2022-08-01T05:40:16;16.20;99.90
35043;DHT22;21230;51.170;17.024;2022-08-01T05:42:41;16.20;99.90
35043;DHT22;21230;51.170;17.024;2022-08-01T05:45:41;16.20;99.90
35043;DHT22;21230;51.170;17.024;2022-08-01T05:48:15;16.20;99.90
35043;DHT22;21230;51.170;17.024;2022-08-01T05:57:12;16.30;99.90
35043;DHT22;21230;51.170;17.024;2022-08-01T06:02:52;16.40;99.90
35043;DHT22;21230;51.170;17.024;2022-08-01T06:05:43;16.50;99.90
35043;DHT22;21230;51.170;17.024;2022-08-01T06:08:15;16.50;99.90
35043;DHT22;21230;51.170;17.024;2022-08-01T06:10:41;16.40;99.90
35043;DHT22;21230;51.170;17.024;2022-08-01T06:13:23;16.40;99.90
35043;DHT22;21230;51.170;17.024;2022-08-01T06:16:16;16.50;99.90
35043;DHT22;21230;51.170;17.024;2022-08-01T06:19:03;16.50;99.90
35043;DHT22;21230;51.170;17.024;2022-08-01T06:21:49;16.70;99.90
35043;DHT22;21230;51.170;17.024;2022-08-01T06:24:16;16.70;99.90
35043;DHT22;21230;51.170;17.024;2022-08-01T06:26:42;16.80;99.90
35043;DHT22;21230;51.170;17.024;2022-08-01T06:29:10;16.90;99.90
35043;DHT22;21230;51.170;17.024;2022-08-01T06:31:42;17.10;99.90
35043;DHT22;21230;51.170;17.024;2022-08-01T06:55:47;18.40;99.90
35043;DHT22;21230;51.170;17.024;2022-08-01T06:58:13;18.60;99.90
35043;DHT22;21230;51.170;17.024;2022-08-01T07:00:38;18.70;99.90
35043;DHT22;21230;51.170;17.024;2022-08-01T07:03:04;18.90;99.90
35043;DHT22;21230;51.170;17.024;2022-08-01T07:05:29;19.10;99.90
35043;DHT22;21230;51.170;17.024;2022-08-01T07:07:56;19.40;99.90
35043;DHT22;21230;51.170;17.024;2022-08-01T07:10:22;19.60;99.90
35043;DHT22;21230;51.170;17.024;2022-08-01T07:12:48;19.90;99.90
35043;DHT22;21230;51.170;17.024;2022-08-01T07:15:18;20.00;99.90
35043;DHT22;21230;51.170;17.024;2022-08-01T07:17:45;20.10;99.90
35043;DHT22;21230;51.170;17.024;2022-08-01T07:20:12;20.30;99.90
35043;DHT22;21230;51.170;17.024;2022-08-01T07:22:38;20.40;99.90
35043;DHT22;21230;51.170;17.024;2022-08-01T07:25:04;20.50;99.90
35043;DHT22;21230;51.170;17.024;2022-08-01T07:27:30;20.80;99.90
35043;DHT22;21230;51.170;17.024;2022-08-01T07:29:55;20.90;99.90
35043;DHT22;21230;51.170;17.024;2022-08-01T07:32:21;21.10;99.90
35043;DHT22;21230;51.170;17.024;2022-08-01T07:34:46;21.30;99.90
35043;DHT22;21230;51.170;17.024;2022-08-01T07:37:14;21.60;99.90
35043;DHT22;21230;51.170;17.024;2022-08-01T07:39:40;21.60;99.90
35043;DHT22;21230;51.170;17.024;2022-08-01T07:42:06;21.60;99.90
35043;DHT22;21230;51.170;17.024;2022-08-01T07:44:55;21.50;99.90
35043;DHT22;21230;51.170;17.024;2022-08-01T07:50:04;21.40;99.90
35043;DHT22;21230;51.170;17.024;2022-08-01T07:52:30;21.40;99.90
35043;DHT22;21230;51.170;17.024;2022-08-01T07:54:56;21.40;99.90
35043;DHT22;21230;51.170;17.024;2022-08-01T07:57:22;21.30;99.90
35043;DHT22;21230;51.170;17.024;2022-08-01T07:59:48;21.30;99.90
35043;DHT22;21230;51.170;17.024;2022-08-01T08:02:17;21.30;99.90
35043;DHT22;21230;51.170;17.024;2022-08-01T08:04:42;21.30;99.90
35043;DHT22;21230;51.170;17.024;2022-08-01T08:07:08;21.30;99.90
35043;DHT22;21230;51.170;17.024;2022-08-01T08:09:34;21.30;99.90
35043;DHT22;21230;51.170;17.024;2022-08-01T08:11:59;21.30;99.90
35043;DHT22;21230;51.170;17.024;2022-08-01T08:14:25;21.30;99.90
35043;DHT22;21230;51.170;17.024;2022-08-01T08:16:51;21.30;99.90
35043;DHT22;21230;51.170;17.024;2022-08-01T08:19:18;21.40;99.90
35043;DHT22;21230;51.170;17.024;2022-08-01T08:21:44;21.50;99.90
35043;DHT22;21230;51.170;17.024;2022-08-01T08:24:09;21.60;99.90
35043;DHT22;21230;51.170;17.024;2022-08-01T08:26:52;21.60;99.90
35043;DHT22;21230;51.170;17.024;2022-08-01T08:29:19;21.60;99.90
35043;DHT22;21230;51.170;17.024;2022-08-01T08:31:47;21.80;99.90
35043;DHT22;21230;51.170;17.024;2022-08-01T08:34:13;21.80;99.90
35043;DHT22;21230;51.170;17.024;2022-08-01T08:36:38;21.80;99.90
35043;DHT22;21230;51.170;17.024;2022-08-01T08:39:04;21.90;99.90
35043;DHT22;21230;51.170;17.024;2022-08-01T08:41:31;21.90;99.90
35043;DHT22;21230;51.170;17.024;2022-08-01T08:43:57;22.10;99.90
35043;DHT22;21230;51.170;17.024;2022-08-01T08:46:27;22.20;99.90
35043;DHT22;21230;51.170;17.024;2022-08-01T08:48:53;22.20;99.90
35043;DHT22;21230;51.170;17.024;2022-08-01T08:51:19;22.30;99.90
35043;DHT22;21230;51.170;17.024;2022-08-01T08:53:46;22.30;99.90
35043;DHT22;21230;51.170;17.024;2022-08-01T08:56:12;22.40;99.90
35043;DHT22;21230;51.170;17.024;2022-08-01T08:58:38;22.40;99.90
35043;DHT22;21230;51.170;17.024;2022-08-01T09:01:08;22.30;99.90
35043;DHT22;21230;51.170;17.024;2022-08-01T09:03:34;22.30;99.90
35043;DHT22;21230;51.170;17.024;2022-08-01T09:06:00;22.30;99.90
35043;DHT22;21230;51.170;17.024;2022-08-01T09:08:25;22.40;99.90
35043;DHT22;21230;51.170;17.024;2022-08-01T09:10:51;22.30;99.90
35043;DHT22;21230;51.170;17.024;2022-08-01T09:13:17;22.40;99.90
35043;DHT22;21230;51.170;17.024;2022-08-01T09:15:43;22.50;99.90
35043;DHT22;21230;51.170;17.024;2022-08-01T09:20:54;22.70;99.90
35043;DHT22;21230;51.170;17.024;2022-08-01T09:23:32;22.80;99.90
35043;DHT22;21230;51.170;17.024;2022-08-01T09:25:58;23.00;99.90
35043;DHT22;21230;51.170;17.024;2022-08-01T09:28:30;22.90;99.90
35043;DHT22;21230;51.170;17.024;2022-08-01T09:30:59;23.00;99.90
35043;DHT22;21230;51.170;17.024;2022-08-01T09:34:00;22.90;99.90
35043;DHT22;21230;51.170;17.024;2022-08-01T09:39:27;22.90;99.90
35043;DHT22;21230;51.170;17.024;2022-08-01T09:47:09;23.30;99.90
35043;DHT22;21230;51.170;17.024;2022-08-01T09:52:59;23.40;99.90
35043;DHT22;21230;51.170;17.024;2022-08-01T09:56:10;23.60;99.90
35043;DHT22;21230;51.170;17.024;2022-08-01T09:58:52;23.50;99.90
35043;DHT22;21230;51.170;17.024;2022-08-01T10:01:20;23.40;99.90
35043;DHT22;21230;51.170;17.024;2022-08-01T10:04:06;23.30;99.90
35043;DHT22;21230;51.170;17.024;2022-08-01T10:06:32;23.30;99.90
35043;DHT22;21230;51.170;17.024;2022-08-01T10:08:58;23.20;99.90
35043;DHT22;21230;51.170;17.024;2022-08-01T10:11:24;23.40;99.90
35043;DHT22;21230;51.170;17.024;2022-08-01T10:13:49;23.60;99.90
35043;DHT22;21230;51.170;17.024;2022-08-01T10:16:15;23.80;99.90
35043;DHT22;21230;51.170;17.024;2022-08-01T10:18:50;23.90;99.90
35043;DHT22;21230;51.170;17.024;2022-08-01T10:21:16;24.20;99.90
35043;DHT22;21230;51.170;17.024;2022-08-01T10:23:43;24.20;99.90
35043;DHT22;21230;51.170;17.024;2022-08-01T10:26:09;24.20;99.90
35043;DHT22;21230;51.170;17.024;2022-08-01T10:28:42;24.20;99.50
35043;DHT22;21230;51.170;17.024;2022-08-01T10:31:16;24.10;99.90
35043;DHT22;21230;51.170;17.024;2022-08-01T10:33:42;24.20;99.90
35043;DHT22;21230;51.170;17.024;2022-08-01T10:36:11;24.20;99.90
35043;DHT22;21230;51.170;17.024;2022-08-01T10:38:41;24.60;99.90
35043;DHT22;21230;51.170;17.024;2022-08-01T10:41:10;24.60;98.30
35043;DHT22;21230;51.170;17.024;2022-08-01T10:43:37;24.60;97.70
35043;DHT22;21230;51.170;17.024;2022-08-01T10:46:03;24.60;97.40
35043;DHT22;21230;51.170;17.024;2022-08-01T10:50:57;24.40;99.90
35043;DHT22;21230;51.170;17.024;2022-08-01T10:53:24;24.30;99.10
35043;DHT22;21230;51.170;17.024;2022-08-01T10:55:57;24.30;99.90
35043;DHT22;21230;51.170;17.024;2022-08-01T10:58:25;24.50;99.90
35043;DHT22;21230;51.170;17.024;2022-08-01T11:03:43;24.70;98.30
35043;DHT22;21230;51.170;17.024;2022-08-01T11:06:15;24.90;99.50
35043;DHT22;21230;51.170;17.024;2022-08-01T11:08:41;25.10;97.80
35043;DHT22;21230;51.170;17.024;2022-08-01T11:11:08;25.00;93.40
35043;DHT22;21230;51.170;17.024;2022-08-01T11:19:22;25.00;96.10
35043;DHT22;21230;51.170;17.024;2022-08-01T11:27:21;24.80;99.90
35043;DHT22;21230;51.170;17.024;2022-08-01T11:35:14;24.60;96.90
35043;DHT22;21230;51.170;17.024;2022-08-01T11:37:39;24.60;97.00
35043;DHT22;21230;51.170;17.024;2022-08-01T11:40:15;24.60;96.40
35043;DHT22;21230;51.170;17.024;2022-08-01T11:42:41;24.70;96.30
35043;DHT22;21230;51.170;17.024;2022-08-01T11:45:07;24.70;97.30
35043;DHT22;21230;51.170;17.024;2022-08-01T11:47:47;24.70;98.00
35043;DHT22;21230;51.170;17.024;2022-08-01T11:53:05;24.70;94.30
35043;DHT22;21230;51.170;17.024;2022-08-01T11:55:32;24.80;95.80
35043;DHT22;21230;51.170;17.024;2022-08-01T12:00:25;24.70;93.70
35043;DHT22;21230;51.170;17.024;2022-08-01T12:03:02;24.90;94.20
35043;DHT22;21230;51.170;17.024;2022-08-01T12:05:30;24.90;94.50
35043;DHT22;21230;51.170;17.024;2022-08-01T12:07:56;25.10;93.90
35043;DHT22;21230;51.170;17.024;2022-08-01T12:10:23;25.10;94.60
35043;DHT22;21230;51.170;17.024;2022-08-01T12:12:50;25.20;92.70
35043;DHT22;21230;51.170;17.024;2022-08-01T12:15:16;25.30;92.60
35043;DHT22;21230;51.170;17.024;2022-08-01T12:17:46;25.40;95.00
35043;DHT22;21230;51.170;17.024;2022-08-01T12:20:14;25.40;93.70
35043;DHT22;21230;51.170;17.024;2022-08-01T12:22:40;25.40;91.80
35043;DHT22;21230;51.170;17.024;2022-08-01T12:25:07;25.20;93.20
35043;DHT22;21230;51.170;17.024;2022-08-01T12:27:33;25.20;92.90
35043;DHT22;21230;51.170;17.024;2022-08-01T12:29:59;25.20;94.00
35043;DHT22;21230;51.170;17.024;2022-08-01T12:32:29;25.20;95.40
35043;DHT22;21230;51.170;17.024;2022-08-01T12:34:57;25.30;92.20
35043;DHT22;21230;51.170;17.024;2022-08-01T12:37:23;25.40;93.20
35043;DHT22;21230;51.170;17.024;2022-08-01T12:39:49;25.60;93.20
35043;DHT22;21230;51.170;17.024;2022-08-01T12:42:14;25.90;92.20
35043;DHT22;21230;51.170;17.024;2022-08-01T12:44:41;25.90;90.40
35043;DHT22;21230;51.170;17.024;2022-08-01T12:47:08;25.70;86.80
35043;DHT22;21230;51.170;17.024;2022-08-01T12:49:37;25.40;91.10
35043;DHT22;21230;51.170;17.024;2022-08-01T12:52:03;25.00;93.10
35043;DHT22;21230;51.170;17.024;2022-08-01T12:54:29;24.70;95.40
35043;DHT22;21230;51.170;17.024;2022-08-01T12:56:55;24.60;96.00
35043;DHT22;21230;51.170;17.024;2022-08-01T12:59:26;24.40;96.40
35043;DHT22;21230;51.170;17.024;2022-08-01T13:01:52;24.40;97.40
35043;DHT22;21230;51.170;17.024;2022-08-01T13:04:18;24.50;97.60
35043;DHT22;21230;51.170;17.024;2022-08-01T13:06:44;24.60;96.80
35043;DHT22;21230;51.170;17.024;2022-08-01T13:09:11;24.60;97.10
35043;DHT22;21230;51.170;17.024;2022-08-01T13:11:37;24.70;97.20
35043;DHT22;21230;51.170;17.024;2022-08-01T13:14:07;25.00;98.20
35043;DHT22;21230;51.170;17.024;2022-08-01T13:16:34;25.10;94.50
35043;DHT22;21230;51.170;17.024;2022-08-01T13:19:10;25.10;96.20
35043;DHT22;21230;51.170;17.024;2022-08-01T13:21:36;25.20;95.00
35043;DHT22;21230;51.170;17.024;2022-08-01T13:24:09;25.20;93.80
35043;DHT22;21230;51.170;17.024;2022-08-01T13:29:38;25.30;94.70
35043;DHT22;21230;51.170;17.024;2022-08-01T13:34:40;25.30;93.80
35043;DHT22;21230;51.170;17.024;2022-08-01T13:37:05;25.30;95.60
35043;DHT22;21230;51.170;17.024;2022-08-01T13:39:31;25.40;93.50
35043;DHT22;21230;51.170;17.024;2022-08-01T13:42:12;25.40;91.80
35043;DHT22;21230;51.170;17.024;2022-08-01T13:44:43;25.40;91.60
35043;DHT22;21230;51.170;17.024;2022-08-01T13:47:15;25.50;93.20
35043;DHT22;21230;51.170;17.024;2022-08-01T13:49:41;25.70;90.40
35043;DHT22;21230;51.170;17.024;2022-08-01T13:52:08;25.70;91.40
35043;DHT22;21230;51.170;17.024;2022-08-01T13:54:34;25.60;89.10
35043;DHT22;21230;51.170;17.024;2022-08-01T13:57:00;25.40;91.40
35043;DHT22;21230;51.170;17.024;2022-08-01T13:59:34;25.20;92.00
35043;DHT22;21230;51.170;17.024;2022-08-01T14:02:00;25.30;93.50
35043;DHT22;21230;51.170;17.024;2022-08-01T14:04:29;25.30;93.70
35043;DHT22;21230;51.170;17.024;2022-08-01T14:07:21;25.30;92.00
35043;DHT22;21230;51.170;17.024;2022-08-01T14:09:50;25.20;91.50
35043;DHT22;21230;51.170;17.024;2022-08-01T14:12:16;25.10;91.40
35043;DHT22;21230;51.170;17.024;2022-08-01T14:14:45;25.10;89.20
35043;DHT22;21230;51.170;17.024;2022-08-01T14:17:13;25.20;91.40
35043;DHT22;21230;51.170;17.024;2022-08-01T14:19:39;25.40;91.00
35043;DHT22;21230;51.170;17.024;2022-08-01T14:22:04;25.30;90.90
35043;DHT22;21230;51.170;17.024;2022-08-01T14:24:36;25.10;93.30
35043;DHT22;21230;51.170;17.024;2022-08-01T14:27:02;25.20;93.40
35043;DHT22;21230;51.170;17.024;2022-08-01T14:29:28;25.30;94.00
35043;DHT22;21230;51.170;17.024;2022-08-01T14:31:53;25.30;95.10
35043;DHT22;21230;51.170;17.024;2022-08-01T14:42:05;25.20;94.10
35043;DHT22;21230;51.170;17.024;2022-08-01T14:44:30;25.20;91.90
35043;DHT22;21230;51.170;17.024;2022-08-01T14:46:56;25.10;90.10
35043;DHT22;21230;51.170;17.024;2022-08-01T14:49:22;25.20;91.70
35043;DHT22;21230;51.170;17.024;2022-08-01T14:51:47;25.40;92.70
35043;DHT22;21230;51.170;17.024;2022-08-01T14:54:13;25.60;91.00
35043;DHT22;21230;51.170;17.024;2022-08-01T14:56:39;25.70;91.90
35043;DHT22;21230;51.170;17.024;2022-08-01T14:59:04;25.60;90.50
35043;DHT22;21230;51.170;17.024;2022-08-01T15:01:30;25.50;91.60
35043;DHT22;21230;51.170;17.024;2022-08-01T15:03:55;25.50;91.10
35043;DHT22;21230;51.170;17.024;2022-08-01T15:06:21;25.50;89.90
35043;DHT22;21230;51.170;17.024;2022-08-01T15:08:50;25.40;88.90
35043;DHT22;21230;51.170;17.024;2022-08-01T15:11:15;25.30;91.00
35043;DHT22;21230;51.170;17.024;2022-08-01T15:13:41;25.40;90.30
35043;DHT22;21230;51.170;17.024;2022-08-01T15:16:07;25.20;89.70
35043;DHT22;21230;51.170;17.024;2022-08-01T15:18:32;25.10;90.40
35043;DHT22;21230;51.170;17.024;2022-08-01T15:20:58;25.30;91.00
35043;DHT22;21230;51.170;17.024;2022-08-01T15:23:24;25.40;90.60
35043;DHT22;21230;51.170;17.024;2022-08-01T15:25:49;25.50;90.40
35043;DHT22;21230;51.170;17.024;2022-08-01T15:28:15;25.50;91.20
35043;DHT22;21230;51.170;17.024;2022-08-01T15:30:41;25.20;93.60
35043;DHT22;21230;51.170;17.024;2022-08-01T15:33:07;25.20;93.20
35043;DHT22;21230;51.170;17.024;2022-08-01T15:35:33;24.70;96.10
35043;DHT22;21230;51.170;17.024;2022-08-01T15:37:58;24.50;99.90
35043;DHT22;21230;51.170;17.024;2022-08-01T15:40:24;24.10;99.90
35043;DHT22;21230;51.170;17.024;2022-08-01T15:42:50;23.60;99.90
35043;DHT22;21230;51.170;17.024;2022-08-01T15:45:17;23.50;99.90
35043;DHT22;21230;51.170;17.024;2022-08-01T15:47:44;23.50;99.90
35043;DHT22;21230;51.170;17.024;2022-08-01T15:50:10;23.50;99.90
35043;DHT22;21230;51.170;17.024;2022-08-01T15:52:35;23.50;99.90
35043;DHT22;21230;51.170;17.024;2022-08-01T15:55:01;23.40;99.90
35043;DHT22;21230;51.170;17.024;2022-08-01T15:57:27;23.40;99.90
35043;DHT22;21230;51.170;17.024;2022-08-01T15:59:52;23.30;99.90
35043;DHT22;21230;51.170;17.024;2022-08-01T16:02:18;23.20;99.90
35043;DHT22;21230;51.170;17.024;2022-08-01T16:04:47;23.30;99.90
35043;DHT22;21230;51.170;17.024;2022-08-01T16:07:12;23.10;99.90
35043;DHT22;21230;51.170;17.024;2022-08-01T16:09:38;23.00;99.90
35043;DHT22;21230;51.170;17.024;2022-08-01T16:12:04;22.80;99.90
35043;DHT22;21230;51.170;17.024;2022-08-01T16:14:33;22.60;99.90
35043;DHT22;21230;51.170;17.024;2022-08-01T16:16:58;22.50;99.90
35043;DHT22;21230;51.170;17.024;2022-08-01T16:19:24;22.50;99.90
35043;DHT22;21230;51.170;17.024;2022-08-01T16:21:50;22.40;99.90
35043;DHT22;21230;51.170;17.024;2022-08-01T16:24:16;22.30;99.90
35043;DHT22;21230;51.170;17.024;2022-08-01T16:26:42;22.20;99.90
35043;DHT22;21230;51.170;17.024;2022-08-01T16:29:07;22.10;99.90
35043;DHT22;21230;51.170;17.024;2022-08-01T16:31:33;22.10;99.90
35043;DHT22;21230;51.170;17.024;2022-08-01T16:33:59;21.90;99.90
35043;DHT22;21230;51.170;17.024;2022-08-01T16:36:24;21.80;99.90
35043;DHT22;21230;51.170;17.024;2022-08-01T16:38:51;21.70;99.90
35043;DHT22;21230;51.170;17.024;2022-08-01T16:41:17;21.70;99.90
35043;DHT22;21230;51.170;17.024;2022-08-01T16:43:43;21.70;99.90
35043;DHT22;21230;51.170;17.024;2022-08-01T16:46:09;21.70;99.90
35043;DHT22;21230;51.170;17.024;2022-08-01T16:48:35;21.70;99.90
35043;DHT22;21230;51.170;17.024;2022-08-01T16:51:01;21.60;99.90
35043;DHT22;21230;51.170;17.024;2022-08-01T16:53:26;21.60;99.90
35043;DHT22;21230;51.170;17.024;2022-08-01T16:56:10;21.60;99.90
35043;DHT22;21230;51.170;17.024;2022-08-01T16:58:36;21.50;99.90
35043;DHT22;21230;51.170;17.024;2022-08-01T17:01:02;21.50;99.90
35043;DHT22;21230;51.170;17.024;2022-08-01T17:03:30;21.50;99.90
35043;DHT22;21230;51.170;17.024;2022-08-01T17:05:56;21.50;99.90
35043;DHT22;21230;51.170;17.024;2022-08-01T17:08:21;21.50;99.90
35043;DHT22;21230;51.170;17.024;2022-08-01T17:10:47;21.60;99.90
35043;DHT22;21230;51.170;17.024;2022-08-01T17:13:23;21.60;99.90
35043;DHT22;21230;51.170;17.024;2022-08-01T17:15:49;21.70;99.90